Time;durP1;ratioP1;P1;durP2;ratioP2;P2;SDS_P1;SDS_P2;PMS_P1;PMS_P2;Temp;Humidity;BMP_temperature;BMP_pressure;BME280_temperature;BME280_humidity;BME280_pressure;Samples;Min_cycle;Max_cycle;Signal;HPM_P1;HPM_P2
2023/07/29 00:01:01;;;;;;;6.05;5.20;;;;;;;18.31;100.00;91653.91;5013172;28;20105;-65
2023/07/29 00:03:26;;;;;;;5.97;4.63;;;;;;;18.32;100.00;91658.13;5013142;28;20894;-67
2023/07/29 00:05:51;;;;;;;6.07;5.47;;;;;;;18.33;100.00;91675.69;5044921;28;20056;-67
2023/07/29 00:08:17;;;;;;;5.20;4.80;;;;;;;18.35;100.00;91686.88;5012829;28;20022;-67
2023/07/29 00:10:42;;;;;;;5.00;4.40;;;;;;;18.36;100.00;91724.91;5011516;28;20104;-67
2023/07/29 00:13:08;;;;;;;5.32;4.82;;;;;;;18.29;100.00;91773.19;5011872;28;20030;-67
2023/07/29 00:15:33;;;;;;;5.65;4.95;;;;;;;18.27;100.00;91784.13;5012977;28;20032;-67
2023/07/29 00:18:00;;;;;;;7.10;5.40;;;;;;;18.32;100.00;91794.72;5011715;28;20033;-67
2023/07/29 00:20:25;;;;;;;5.00;4.60;;;;;;;18.35;100.00;91832.50;5047049;28;20030;-68
2023/07/29 00:22:53;;;;;;;5.30;4.90;;;;;;;18.37;100.00;91880.94;5014959;28;20033;-67
2023/07/29 00:25:19;;;;;;;7.38;5.07;;;;;;;18.39;100.00;91924.03;5015400;28;20037;-67
2023/07/29 00:27:44;;;;;;;5.25;4.82;;;;;;;18.41;100.00;91943.19;5015896;28;20412;-67
2023/07/29 00:30:10;;;;;;;6.07;5.30;;;;;;;18.46;100.00;91986.53;5014140;28;20045;-66
2023/07/29 00:32:36;;;;;;;6.50;5.20;;;;;;;18.47;100.00;92008.66;5009507;28;20072;-66
2023/07/29 00:35:02;;;;;;;5.50;5.10;;;;;;;18.49;100.00;92033.13;5017286;28;20806;-66
2023/07/29 00:37:28;;;;;;;5.30;4.90;;;;;;;18.46;100.00;92066.41;5015655;28;20025;-66
2023/07/29 00:39:53;;;;;;;6.03;5.47;;;;;;;18.45;100.00;92101.31;5019274;28;20399;-66
2023/07/29 00:42:19;;;;;;;5.50;4.95;;;;;;;18.43;100.00;92117.59;5030210;28;20034;-66
2023/07/29 00:44:44;;;;;;;5.43;4.97;;;;;;;18.40;100.00;92152.75;5014802;28;20026;-66
2023/07/29 00:47:12;;;;;;;5.20;4.72;;;;;;;18.35;100.00;92191.94;5014296;28;20029;-66
2023/07/29 00:49:38;;;;;;;5.35;4.93;;;;;;;18.32;100.00;92215.38;5013752;28;20032;-66
2023/07/29 00:52:03;;;;;;;5.78;5.25;;;;;;;18.34;100.00;92241.72;5017133;28;20029;-67
2023/07/29 00:54:29;;;;;;;5.35;4.95;;;;;;;18.34;100.00;92265.66;5014905;28;20505;-67
2023/07/29 00:56:54;;;;;;;7.97;5.78;;;;;;;18.33;100.00;92290.72;5042614;28;20503;-66
2023/07/29 00:59:20;;;;;;;5.18;4.78;;;;;;;18.34;100.00;92310.94;5010800;28;20026;-66
2023/07/29 01:01:45;;;;;;;5.30;4.80;;;;;;;18.40;100.00;92402.25;5012821;28;20029;-66
2023/07/29 01:04:11;;;;;;;5.65;4.95;;;;;;;18.44;100.00;92417.44;5015750;28;20515;-66
2023/07/29 01:06:58;;;;;;;5.40;4.90;;;;;;;18.41;100.00;92451.78;5009345;28;20106;-67
2023/07/29 01:09:48;;;;;;;6.85;4.90;;;;;;;18.35;100.00;92496.28;5011373;28;20109;-67
2023/07/29 01:12:22;;;;;;;5.10;4.65;;;;;;;18.31;100.00;92519.97;5014071;28;20053;-67
2023/07/29 01:15:04;;;;;;;5.38;4.97;;;;;;;18.28;100.00;92555.13;5008342;28;20045;-66
2023/07/29 01:17:34;;;;;;;9.05;4.70;;;;;;;18.27;100.00;92564.19;5011766;28;20037;-66
2023/07/29 01:20:20;;;;;;;4.88;4.50;;;;;;;18.26;100.00;92578.56;5009322;28;20620;-67
2023/07/29 01:22:49;;;;;;;5.43;5.03;;;;;;;18.25;100.00;92595.59;5014185;28;20065;-67
2023/07/29 01:25:15;;;;;;;5.68;4.93;;;;;;;18.22;100.00;92596.13;5013786;28;20467;-66
2023/07/29 01:27:42;;;;;;;7.80;5.25;;;;;;;18.22;100.00;92608.63;5017395;28;20068;-67
2023/07/29 01:30:08;;;;;;;5.22;4.70;;;;;;;18.15;100.00;92640.84;5003599;28;20032;-67
2023/07/29 01:32:44;;;;;;;5.43;5.00;;;;;;;18.14;100.00;92657.88;5003020;28;20647;-66
2023/07/29 01:35:28;;;;;;;9.57;5.35;;;;;;;17.96;100.00;92712.38;5027327;28;20030;-66
2023/07/29 01:38:05;;;;;;;5.50;5.00;;;;;;;17.88;100.00;92738.41;5009851;28;20108;-66
2023/07/29 01:40:31;;;;;;;6.00;5.50;;;;;;;17.82;100.00;92728.03;5010019;28;20031;-67
2023/07/29 01:42:57;;;;;;;6.90;5.07;;;;;;;17.79;100.00;92728.50;5000552;28;20398;-67
2023/07/29 01:45:25;;;;;;;6.00;5.43;;;;;;;17.82;100.00;92720.03;5012313;28;20034;-66
2023/07/29 01:47:51;;;;;;;5.75;5.20;;;;;;;17.76;100.00;92725.31;5005047;28;20478;-66
2023/07/29 01:50:16;;;;;;;6.07;5.47;;;;;;;17.73;100.00;92741.00;5015645;28;20025;-67
2023/07/29 01:52:42;;;;;;;5.40;4.90;;;;;;;17.73;100.00;92746.34;5006080;28;20087;-66
2023/07/29 01:55:07;;;;;;;6.65;5.32;;;;;;;17.73;100.00;92746.34;5007059;28;20080;-66
2023/07/29 01:57:33;;;;;;;5.90;5.25;;;;;;;17.73;100.00;92762.28;5012703;28;20021;-66
2023/07/29 01:59:59;;;;;;;5.80;5.22;;;;;;;17.70;100.00;92858.59;5012971;28;20021;-66
2023/07/29 02:02:24;;;;;;;6.10;5.60;;;;;;;17.64;100.00;92862.25;5012809;28;20074;-67
2023/07/29 02:04:51;;;;;;;5.45;4.78;;;;;;;17.57;100.00;92819.91;5024133;28;20869;-66
2023/07/29 02:07:18;;;;;;;6.05;5.45;;;;;;;17.53;100.00;92838.25;5042940;28;20026;-66
2023/07/29 02:09:43;;;;;;;5.38;4.95;;;;;;;17.51;100.00;92845.69;5008163;28;20467;-66
2023/07/29 02:12:09;;;;;;;5.43;4.97;;;;;;;17.47;100.00;92903.88;5012624;28;20722;-66
2023/07/29 02:14:34;;;;;;;7.68;5.60;;;;;;;17.45;100.00;92900.69;5013530;28;20026;-66
2023/07/29 02:16:59;;;;;;;5.35;4.95;;;;;;;17.44;100.00;92851.22;5009972;28;20061;-67
2023/07/29 02:19:25;;;;;;;5.53;4.95;;;;;;;17.44;100.00;92850.41;5012150;28;20034;-66
2023/07/29 02:21:50;;;;;;;5.53;5.03;;;;;;;17.41;100.00;92896.94;5010097;28;20101;-67
2023/07/29 02:24:15;;;;;;;5.60;5.05;;;;;;;17.37;100.00;92911.78;5006578;28;20030;-66
2023/07/29 02:26:41;;;;;;;6.68;5.10;;;;;;;17.36;100.00;92922.66;5015913;28;20065;-66
2023/07/29 02:29:07;;;;;;;5.45;5.05;;;;;;;17.37;100.00;92932.25;4992356;28;20034;-66
2023/07/29 02:31:34;;;;;;;5.88;5.38;;;;;;;17.37;100.00;92937.56;5009524;28;20034;-67
2023/07/29 02:34:00;;;;;;;6.10;5.53;;;;;;;17.38;100.00;92939.97;5010171;28;20108;-67
2023/07/29 02:36:25;;;;;;;7.63;5.78;;;;;;;17.37;100.00;92914.44;5014162;28;20069;-66
2023/07/29 02:38:50;;;;;;;5.50;5.00;;;;;;;17.34;100.00;92912.28;5010936;28;20529;-66
2023/07/29 02:41:16;;;;;;;6.32;5.47;;;;;;;17.31;100.00;92841.00;5007684;28;20633;-66
2023/07/29 02:43:48;;;;;;;6.10;5.70;;;;;;;17.30;100.00;92956.38;5012905;28;20497;-66
2023/07/29 02:46:14;;;;;;;5.63;5.10;;;;;;;17.28;100.00;92990.38;5020458;28;20026;-66
2023/07/29 02:48:39;;;;;;;7.13;5.65;;;;;;;17.29;100.00;92997.31;5003844;28;20026;-66
2023/07/29 02:51:04;;;;;;;6.03;5.63;;;;;;;17.27;100.00;92999.41;5009262;28;20960;-66
2023/07/29 02:53:30;;;;;;;6.03;5.47;;;;;;;17.28;100.00;93040.91;5011686;28;20121;-67
2023/07/29 02:55:55;;;;;;;6.60;5.95;;;;;;;17.26;100.00;93043.81;5011216;28;20037;-67
2023/07/29 02:58:21;;;;;;;5.75;5.35;;;;;;;17.26;100.00;93056.31;5007915;28;20022;-67
2023/07/29 03:00:48;;;;;;;8.20;5.55;;;;;;;17.28;100.00;93065.66;4990145;28;20109;-66
2023/07/29 03:03:13;;;;;;;5.80;5.30;;;;;;;17.26;100.00;93061.63;5009424;28;20040;-66
2023/07/29 03:05:39;;;;;;;6.20;5.70;;;;;;;17.26;100.00;93050.97;5013016;28;20482;-67
2023/07/29 03:08:04;;;;;;;6.72;6.22;;;;;;;17.21;100.00;93048.28;5023518;28;20014;-66
2023/07/29 03:10:30;;;;;;;6.45;5.85;;;;;;;17.17;100.00;93032.00;5011692;28;20046;-67
2023/07/29 03:12:56;;;;;;;6.32;5.78;;;;;;;17.15;100.00;93024.28;5005963;28;20101;-66
2023/07/29 03:15:25;;;;;;;5.97;5.38;;;;;;;17.21;100.00;93025.13;5008181;28;20022;-67
2023/07/29 03:17:51;;;;;;;6.00;5.50;;;;;;;17.15;100.00;93040.25;5009900;28;20033;-66
2023/07/29 03:20:17;;;;;;;6.25;5.85;;;;;;;17.14;100.00;93065.22;5009251;28;20037;-66
2023/07/29 03:22:43;;;;;;;5.75;5.07;;;;;;;17.13;100.00;93052.16;5010927;28;20083;-67
2023/07/29 03:25:09;;;;;;;6.22;5.63;;;;;;;17.02;100.00;93056.53;5008739;28;20026;-67
2023/07/29 03:27:36;;;;;;;6.05;5.45;;;;;;;17.02;100.00;93012.19;5017254;28;20184;-66
2023/07/29 03:30:02;;;;;;;6.13;5.53;;;;;;;16.99;100.00;93015.31;5009385;28;20026;-66
2023/07/29 03:32:28;;;;;;;7.45;5.57;;;;;;;16.93;100.00;93010.97;5014525;28;20026;-66
2023/07/29 03:34:53;;;;;;;8.80;6.63;;;;;;;16.79;100.00;92996.44;5014983;28;20034;-67
2023/07/29 03:37:19;;;;;;;6.35;5.82;;;;;;;16.74;100.00;92934.22;5011483;28;20072;-66
2023/07/29 03:39:45;;;;;;;7.20;5.20;;;;;;;16.83;100.00;92880.66;4987792;28;20041;-66
2023/07/29 03:42:10;;;;;;;7.40;5.65;;;;;;;16.84;100.00;92827.28;5009669;28;20037;-66
2023/07/29 03:44:35;;;;;;;8.07;7.22;;;;;;;16.89;100.00;92819.34;5004780;28;20030;-67
2023/07/29 03:47:01;;;;;;;7.03;6.20;;;;;;;16.89;100.00;92786.66;5008234;28;20049;-67
2023/07/29 03:49:26;;;;;;;6.18;5.68;;;;;;;16.89;100.00;92750.25;5030437;28;20665;-66
2023/07/29 03:51:51;;;;;;;7.57;5.53;;;;;;;16.89;100.00;92717.59;5010908;28;20032;-66
2023/07/29 03:54:17;;;;;;;6.68;6.18;;;;;;;16.90;100.00;92727.94;4997202;28;20033;-66
2023/07/29 03:56:42;;;;;;;6.68;5.75;;;;;;;16.95;100.00;92700.63;5002766;28;20038;-67
2023/07/29 03:59:07;;;;;;;6.75;6.15;;;;;;;16.98;100.00;92686.03;5008456;28;20022;-66
2023/07/29 04:01:33;;;;;;;6.43;5.93;;;;;;;16.99;100.00;92679.69;5012542;28;20074;-66
2023/07/29 04:03:59;;;;;;;6.82;6.25;;;;;;;16.98;100.00;92701.97;5014752;28;20064;-67
2023/07/29 04:06:25;;;;;;;6.05;5.55;;;;;;;16.96;100.00;92704.88;5014505;28;20025;-66
2023/07/29 04:08:50;;;;;;;6.45;5.78;;;;;;;16.95;100.00;92694.53;5012111;28;20108;-66
2023/07/29 04:11:16;;;;;;;6.53;5.80;;;;;;;16.95;100.00;92681.25;5010014;28;20079;-66
2023/07/29 04:13:41;;;;;;;6.38;5.85;;;;;;;16.93;100.00;92676.16;5015048;28;20044;-67
2023/07/29 04:16:07;;;;;;;11.10;6.00;;;;;;;16.85;100.00;92668.69;5009249;28;20025;-66
2023/07/29 04:18:32;;;;;;;6.72;6.13;;;;;;;16.79;100.00;92643.94;5015718;28;20042;-66
2023/07/29 04:20:58;;;;;;;6.50;5.78;;;;;;;16.84;100.00;92604.09;5012596;28;20030;-67
2023/07/29 04:23:23;;;;;;;7.18;5.72;;;;;;;16.84;100.00;92574.88;5013851;28;20029;-67
2023/07/29 04:25:49;;;;;;;6.75;6.13;;;;;;;16.87;100.00;92547.81;5016761;28;20116;-67
2023/07/29 04:28:15;;;;;;;6.10;5.60;;;;;;;16.93;100.00;92518.63;5014025;28;20070;-66
2023/07/29 04:30:40;;;;;;;6.15;5.65;;;;;;;16.96;100.00;92523.41;5014187;28;20449;-66
2023/07/29 04:33:06;;;;;;;6.20;5.60;;;;;;;16.98;100.00;92537.25;5023317;28;20411;-66
2023/07/29 04:35:31;;;;;;;6.40;5.80;;;;;;;16.97;100.00;92557.69;5010979;28;20040;-68
2023/07/29 04:37:57;;;;;;;6.57;5.72;;;;;;;16.90;100.00;92584.47;5030439;28;20113;-66
2023/07/29 04:40:22;;;;;;;6.00;5.55;;;;;;;16.86;100.00;92598.53;5012799;28;20516;-67
2023/07/29 04:42:49;;;;;;;6.90;5.70;;;;;;;16.82;100.00;92606.22;5007837;28;20019;-66
2023/07/29 04:45:16;;;;;;;6.22;5.72;;;;;;;16.77;100.00;92614.16;5014421;28;20045;-67
2023/07/29 04:47:41;;;;;;;6.63;6.03;;;;;;;16.78;100.00;92601.66;5006544;28;20030;-66
2023/07/29 04:50:07;;;;;;;6.28;5.70;;;;;;;16.76;100.00;92572.72;5018065;28;20064;-66
2023/07/29 04:52:32;;;;;;;6.22;5.75;;;;;;;16.76;100.00;92564.75;5011380;28;20560;-67
2023/07/29 04:54:58;;;;;;;6.20;5.70;;;;;;;16.74;100.00;92567.66;5013096;28;20038;-66
2023/07/29 04:57:23;;;;;;;7.90;6.63;;;;;;;16.81;100.00;92562.13;5021321;28;20083;-66
2023/07/29 04:59:49;;;;;;;7.47;6.78;;;;;;;16.76;100.00;92565.53;5010882;28;20033;-66
2023/07/29 05:02:15;;;;;;;7.03;5.82;;;;;;;16.71;100.00;92570.03;5013730;28;20026;-66
2023/07/29 05:04:40;;;;;;;6.70;6.05;;;;;;;16.74;100.00;92509.22;5014429;28;20033;-67
2023/07/29 05:07:06;;;;;;;5.85;5.25;;;;;;;16.68;100.00;92498.81;4997288;28;20025;-67
2023/07/29 05:09:31;;;;;;;7.53;5.97;;;;;;;16.52;100.00;92503.25;5010084;28;20032;-67
2023/07/29 05:11:57;;;;;;;8.20;6.25;;;;;;;16.45;100.00;92498.97;5014870;28;20022;-66
2023/07/29 05:14:22;;;;;;;6.18;5.78;;;;;;;16.52;100.00;92480.19;5039880;28;20033;-66
2023/07/29 05:16:47;;;;;;;6.35;5.85;;;;;;;16.57;100.00;92464.25;5012762;28;20045;-67
2023/07/29 05:19:13;;;;;;;7.10;6.35;;;;;;;16.54;100.00;92464.78;5010347;28;20034;-67
2023/07/29 05:21:39;;;;;;;8.57;6.22;;;;;;;16.51;100.00;92452.03;5023845;28;20151;-66
2023/07/29 05:24:04;;;;;;;6.57;5.97;;;;;;;16.54;100.00;92424.94;5011295;28;20030;-66
2023/07/29 05:26:30;;;;;;;6.47;5.88;;;;;;;16.55;100.00;92394.69;5017644;28;20068;-66
2023/07/29 05:28:55;;;;;;;6.95;5.93;;;;;;;16.54;100.00;92387.78;5003191;28;20033;-67
2023/07/29 05:31:22;;;;;;;6.82;6.22;;;;;;;16.61;100.00;92452.06;5012455;28;20022;-66
2023/07/29 05:33:47;;;;;;;7.28;6.57;;;;;;;16.71;100.00;92312.41;5011118;28;20026;-66
2023/07/29 05:36:12;;;;;;;6.63;6.00;;;;;;;16.83;100.00;92241.22;5015010;28;20553;-66
2023/07/29 05:38:38;;;;;;;7.32;5.88;;;;;;;16.97;100.00;92225.56;5005338;28;20048;-66
2023/07/29 05:41:03;;;;;;;6.68;5.45;;;;;;;17.03;100.00;92240.47;5011811;28;20057;-67
2023/07/29 05:43:29;;;;;;;7.15;6.30;;;;;;;17.10;100.00;92250.81;5008186;28;20029;-67
2023/07/29 05:45:54;;;;;;;7.30;6.22;;;;;;;17.15;100.00;92280.06;5005107;28;20026;-66
2023/07/29 05:48:20;;;;;;;6.55;6.05;;;;;;;17.30;100.00;92332.44;5010395;28;20104;-67
2023/07/29 05:50:45;;;;;;;6.72;6.13;;;;;;;17.42;100.00;92395.97;5013179;28;20032;-66
2023/07/29 05:53:10;;;;;;;6.00;5.47;;;;;;;17.53;100.00;92463.25;5025454;28;20030;-67
2023/07/29 05:55:36;;;;;;;5.80;5.30;;;;;;;17.68;100.00;92555.56;5010924;28;20084;-67
2023/07/29 05:58:01;;;;;;;6.13;5.63;;;;;;;17.81;100.00;92660.69;5008381;28;20037;-67
2023/07/29 06:00:27;;;;;;;5.68;5.28;;;;;;;17.99;100.00;92755.22;5007243;28;20027;-66
2023/07/29 06:02:52;;;;;;;6.10;5.50;;;;;;;18.13;100.00;92802.69;5037240;28;20379;-66
2023/07/29 06:05:17;;;;;;;5.97;5.38;;;;;;;18.13;100.00;92855.94;5002892;28;20033;-67
2023/07/29 06:07:44;;;;;;;5.60;5.20;;;;;;;18.16;100.00;92903.34;5011871;28;20081;-66
2023/07/29 06:10:12;;;;;;;5.97;5.53;;;;;;;18.28;100.00;92929.75;5014221;28;20026;-67
2023/07/29 06:12:38;;;;;;;5.93;5.53;;;;;;;18.45;100.00;92951.69;5014041;28;20057;-67
2023/07/29 06:15:05;;;;;;;6.10;5.50;;;;;;;18.67;100.00;92939.28;5010876;28;20022;-67
2023/07/29 06:17:30;;;;;;;6.38;5.85;;;;;;;18.76;100.00;92980.38;5013999;28;20514;-67
2023/07/29 06:19:55;;;;;;;5.50;5.03;;;;;;;18.89;100.00;93027.84;5014288;28;20129;-67
2023/07/29 06:22:21;;;;;;;6.22;5.63;;;;;;;19.02;100.00;93069.28;5014339;28;20637;-67
2023/07/29 06:24:46;;;;;;;5.75;5.25;;;;;;;19.14;100.00;93085.09;5010888;28;20076;-67
2023/07/29 06:27:12;;;;;;;5.82;5.25;;;;;;;19.25;100.00;93122.44;5021920;28;20050;-67
2023/07/29 06:29:37;;;;;;;7.07;5.57;;;;;;;19.33;100.00;93132.63;5014002;28;20037;-67
2023/07/29 06:32:03;;;;;;;5.90;5.35;;;;;;;19.46;100.00;93126.03;5014070;28;20037;-67
2023/07/29 06:34:28;;;;;;;6.43;5.93;;;;;;;19.68;100.00;93144.53;5022961;28;20030;-67
2023/07/29 06:36:53;;;;;;;5.45;4.95;;;;;;;19.74;100.00;93180.06;5045251;28;20600;-66
2023/07/29 06:39:19;;;;;;;5.30;4.90;;;;;;;19.75;100.00;93195.00;5013578;28;20029;-67
2023/07/29 06:41:44;;;;;;;5.35;4.95;;;;;;;19.77;100.00;93214.22;5041637;28;20029;-67
2023/07/29 06:44:10;;;;;;;5.93;4.95;;;;;;;19.82;100.00;93238.25;5012043;28;20077;-67
2023/07/29 06:46:35;;;;;;;5.70;5.30;;;;;;;19.90;100.00;93248.47;5001777;28;20026;-67
2023/07/29 06:49:01;;;;;;;5.60;5.10;;;;;;;20.12;100.00;93260.06;5015091;28;20065;-67
2023/07/29 06:51:26;;;;;;;5.93;5.32;;;;;;;20.33;100.00;93275.09;5013488;28;20093;-67
2023/07/29 06:53:52;;;;;;;5.70;4.95;;;;;;;20.55;100.00;93308.84;5013607;28;20458;-66
2023/07/29 06:56:17;;;;;;;6.03;5.05;;;;;;;20.66;100.00;93333.72;5011762;28;20091;-67
2023/07/29 06:58:43;;;;;;;5.82;5.38;;;;;;;20.66;100.00;93373.00;5012918;28;20113;-67
2023/07/29 07:01:08;;;;;;;5.65;5.25;;;;;;;20.83;100.00;93389.66;5013151;28;20108;-67
2023/07/29 07:03:33;;;;;;;5.78;5.28;;;;;;;21.05;100.00;93415.41;5028608;28;20105;-67
2023/07/29 07:05:59;;;;;;;8.85;5.15;;;;;;;21.39;100.00;93430.19;5013006;28;20033;-67
2023/07/29 07:08:24;;;;;;;5.70;5.00;;;;;;;21.63;100.00;93462.63;5011383;28;20029;-65
2023/07/29 07:10:50;;;;;;;5.22;4.50;;;;;;;21.92;100.00;93485.47;5011941;28;20062;-65
2023/07/29 07:13:15;;;;;;;5.40;4.80;;;;;;;22.33;100.00;93510.38;5022028;28;20034;-65
2023/07/29 07:15:40;;;;;;;4.85;4.38;;;;;;;22.59;100.00;93542.53;5012579;28;20053;-65
2023/07/29 07:18:06;;;;;;;7.05;5.47;;;;;;;22.55;100.00;93605.03;5011256;28;20406;-65
2023/07/29 07:20:32;;;;;;;5.35;4.95;;;;;;;22.48;100.00;93618.69;5011247;28;20651;-65
2023/07/29 07:22:57;;;;;;;5.45;4.95;;;;;;;22.20;100.00;93644.09;5012954;28;20441;-65
2023/07/29 07:25:22;;;;;;;5.05;4.60;;;;;;;22.11;100.00;93617.00;5012878;28;20040;-65
2023/07/29 07:27:48;;;;;;;5.28;4.78;;;;;;;21.86;100.00;93653.38;5020324;28;20548;-65
2023/07/29 07:30:14;;;;;;;5.53;5.05;;;;;;;21.72;100.00;93664.56;5015881;28;20475;-65
2023/07/29 07:32:39;;;;;;;5.38;4.88;;;;;;;21.65;100.00;93661.31;5017124;28;20033;-65
2023/07/29 07:35:05;;;;;;;5.05;4.63;;;;;;;21.66;100.00;93667.47;5013999;28;20030;-65
2023/07/29 07:37:30;;;;;;;8.27;5.15;;;;;;;21.64;100.00;93667.72;5008635;28;20026;-64
2023/07/29 07:39:56;;;;;;;5.47;4.97;;;;;;;22.08;100.00;93650.47;5010289;28;20042;-65
2023/07/29 07:42:21;;;;;;;6.03;5.43;;;;;;;22.30;100.00;93631.50;5015830;28;20057;-65
2023/07/29 07:44:47;;;;;;;5.55;5.05;;;;;;;23.01;100.00;93677.44;5015378;28;20026;-64
2023/07/29 07:47:12;;;;;;;5.43;4.88;;;;;;;23.80;100.00;93703.06;5017462;28;20030;-64
2023/07/29 07:49:38;;;;;;;5.57;4.90;;;;;;;24.50;100.00;93837.78;5011979;28;20092;-64
2023/07/29 07:52:03;;;;;;;5.40;4.78;;;;;;;25.28;100.00;93883.97;5016946;28;20054;-65
2023/07/29 07:54:29;;;;;;;4.75;4.25;;;;;;;25.14;100.00;94000.38;5016323;28;20096;-65
2023/07/29 07:56:54;;;;;;;5.10;4.63;;;;;;;24.70;100.00;93955.28;5015529;28;20034;-65
2023/07/29 07:59:19;;;;;;;4.97;4.45;;;;;;;24.46;100.00;93963.94;5047911;28;20548;-65
2023/07/29 08:01:45;;;;;;;6.57;4.60;;;;;;;24.00;100.00;93979.00;5016588;28;20217;-66
2023/07/29 08:04:10;;;;;;;6.32;4.57;;;;;;;23.61;100.00;93923.09;5016680;28;20022;-65
2023/07/29 08:06:36;;;;;;;5.45;4.97;;;;;;;23.45;100.00;93884.69;5016096;28;20038;-64
2023/07/29 08:09:02;;;;;;;4.93;4.53;;;;;;;23.62;100.00;93857.56;5015966;28;20041;-64
2023/07/29 08:11:27;;;;;;;5.35;4.95;;;;;;;24.12;100.00;93892.75;5011689;28;20038;-65
2023/07/29 08:13:52;;;;;;;5.50;4.80;;;;;;;24.82;100.00;93898.50;5008188;28;20634;-65
2023/07/29 08:16:18;;;;;;;5.13;4.68;;;;;;;25.59;100.00;93976.19;4999901;28;20036;-65
2023/07/29 08:18:43;;;;;;;5.05;4.70;;;;;;;25.73;100.00;94002.53;5013570;28;20033;-65
2023/07/29 08:21:09;;;;;;;4.80;4.50;;;;;;;25.37;100.00;94057.38;5014619;28;20112;-65
2023/07/29 08:23:36;;;;;;;4.95;4.45;;;;;;;24.72;100.00;94029.22;5010530;28;20034;-65
2023/07/29 08:26:05;;;;;;;5.85;4.90;;;;;;;24.32;100.00;93987.88;5009291;28;20395;-65
2023/07/29 08:28:32;;;;;;;5.10;4.70;;;;;;;23.99;100.00;93950.50;5008135;28;20091;-65
2023/07/29 08:30:58;;;;;;;5.00;4.60;;;;;;;23.85;100.00;93978.97;5021840;28;20033;-65
2023/07/29 08:33:24;;;;;;;5.78;4.70;;;;;;;23.80;100.00;93971.72;5021641;28;20017;-65
2023/07/29 08:35:49;;;;;;;5.03;4.60;;;;;;;23.79;100.00;93915.56;5014201;28;20035;-65
2023/07/29 08:38:14;;;;;;;5.35;4.95;;;;;;;23.92;100.00;93866.66;5014629;28;20033;-65
2023/07/29 08:40:48;;;;;;;5.85;4.88;;;;;;;24.08;100.00;93920.44;5014356;28;20056;-65
2023/07/29 08:43:16;;;;;;;5.57;5.05;;;;;;;24.20;100.00;93963.16;5003528;28;20074;-65
2023/07/29 08:45:43;;;;;;;5.45;5.05;;;;;;;24.05;100.00;93966.66;5013040;28;20053;-65
2023/07/29 08:48:11;;;;;;;5.05;4.65;;;;;;;23.99;100.00;93945.13;5015129;28;20068;-65
2023/07/29 08:50:37;;;;;;;5.43;5.03;;;;;;;24.15;100.00;93998.91;5020251;28;20017;-65
2023/07/29 08:53:05;;;;;;;5.47;4.97;;;;;;;25.06;100.00;94000.13;5015430;28;20059;-65
2023/07/29 08:55:32;;;;;;;5.72;5.15;;;;;;;25.85;100.00;94040.69;5016089;28;20018;-65
2023/07/29 08:57:59;;;;;;;5.38;4.80;;;;;;;26.45;100.00;94061.34;5015935;28;20100;-65
2023/07/29 09:00:25;;;;;;;4.85;4.35;;;;;;;26.91;100.00;94043.16;5015836;28;20514;-65
2023/07/29 09:02:51;;;;;;;5.45;5.03;;;;;;;26.74;100.00;94097.56;5015904;28;20029;-65
2023/07/29 09:05:16;;;;;;;5.18;4.78;;;;;;;26.67;100.00;94092.47;5015380;28;20030;-65
2023/07/29 09:07:44;;;;;;;5.50;5.00;;;;;;;26.86;100.00;94065.63;5015877;28;20033;-65
2023/07/29 09:10:12;;;;;;;7.03;4.80;;;;;;;26.60;100.00;94081.22;5014451;28;20044;-65
2023/07/29 09:12:38;;;;;;;4.57;4.20;;;;;;;26.33;100.00;94122.13;5015533;28;20779;-65
2023/07/29 09:15:04;;;;;;;5.13;4.65;;;;;;;26.12;100.00;94097.97;5014031;28;20421;-65
2023/07/29 09:17:33;;;;;;;5.35;4.90;;;;;;;25.68;100.00;94086.09;5015362;28;20030;-65
2023/07/29 09:19:59;;;;;;;5.22;4.80;;;;;;;25.46;100.00;94096.09;5015270;28;20022;-65
2023/07/29 09:22:26;;;;;;;4.93;4.53;;;;;;;25.27;100.00;94114.75;5013764;28;20052;-65
2023/07/29 09:24:52;;;;;;;5.10;4.60;;;;;;;25.22;100.00;94127.41;5001609;28;20032;-65
2023/07/29 09:27:29;;;;;;;5.28;4.78;;;;;;;25.08;100.00;94117.19;5014704;28;20069;-65
2023/07/29 09:29:56;;;;;;;6.30;4.88;;;;;;;24.99;100.00;94087.38;5015380;28;20025;-65
2023/07/29 09:32:22;;;;;;;6.30;5.25;;;;;;;25.00;100.00;94080.06;5015180;28;20033;-65
2023/07/29 09:34:49;;;;;;;6.72;5.47;;;;;;;24.80;100.00;94072.84;5013857;28;20026;-65
2023/07/29 09:37:21;;;;;;;5.10;4.70;;;;;;;24.70;100.00;94057.50;5013789;28;20033;-65
2023/07/29 09:39:50;;;;;;;6.22;5.68;;;;;;;24.73;100.00;94056.97;5014998;28;20465;-65
2023/07/29 09:42:19;;;;;;;9.50;4.65;;;;;;;24.70;100.00;94079.03;5014077;28;20033;-67
2023/07/29 09:44:45;;;;;;;5.63;5.22;;;;;;;24.70;100.00;94076.34;5014470;28;20036;-65
2023/07/29 09:47:20;;;;;;;6.05;5.47;;;;;;;24.96;100.00;94060.16;5014477;28;20017;-64
2023/07/29 09:49:45;;;;;;;;;;;;;;;24.98;100.00;94109.97;5014159;28;20025;-66
2023/07/29 09:52:11;;;;;;;5.55;4.95;;;;;;;24.97;100.00;94099.47;5013900;28;19917;-64
2023/07/29 09:54:36;;;;;;;5.03;4.53;;;;;;;24.99;100.00;94118.84;5014528;28;20034;-65
2023/07/29 09:57:02;;;;;;;5.40;5.00;;;;;;;24.95;100.00;94109.69;5014500;28;20013;-65
2023/07/29 09:59:28;;;;;;;5.22;4.72;;;;;;;24.94;100.00;94102.69;5014835;28;20030;-65
2023/07/29 10:01:53;;;;;;;6.15;4.47;;;;;;;25.01;100.00;94122.06;5046566;28;20478;-67
2023/07/29 10:04:19;;;;;;;5.82;4.93;;;;;;;25.05;100.00;94117.75;5014558;28;20554;-65
2023/07/29 10:06:46;;;;;;;5.85;4.88;;;;;;;25.03;100.00;94125.28;5014394;28;20041;-65
2023/07/29 10:09:12;;;;;;;6.55;4.55;;;;;;;25.00;100.00;94115.88;5014456;28;20065;-65
2023/07/29 10:11:39;;;;;;;5.88;5.10;;;;;;;24.98;100.00;94104.59;5014036;28;20530;-65
2023/07/29 10:14:04;;;;;;;5.38;4.97;;;;;;;24.95;100.00;94105.09;5014313;28;20030;-65
2023/07/29 10:16:30;;;;;;;4.63;4.22;;;;;;;24.93;100.00;94090.31;5014384;28;20572;-65
2023/07/29 10:18:57;;;;;;;5.18;4.78;;;;;;;25.01;100.00;94068.22;5014574;28;20029;-65
2023/07/29 10:21:23;;;;;;;5.20;4.80;;;;;;;25.07;100.00;94037.53;5014085;28;20494;-65
2023/07/29 10:23:53;;;;;;;4.80;4.30;;;;;;;25.17;100.00;94064.44;5019236;28;20080;-65
2023/07/29 10:26:20;;;;;;;5.18;4.30;;;;;;;25.34;100.00;94044.44;5012784;28;20057;-65
2023/07/29 10:28:48;;;;;;;9.23;4.55;;;;;;;25.51;100.00;94024.47;5014311;28;20033;-65
2023/07/29 10:31:16;;;;;;;4.90;4.53;;;;;;;25.68;100.00;94008.75;5045682;28;20109;-65
2023/07/29 10:33:43;;;;;;;5.40;5.00;;;;;;;25.78;100.00;93988.22;5000892;28;20026;-65
2023/07/29 10:36:09;;;;;;;5.00;4.60;;;;;;;25.80;100.00;93975.28;5004906;28;20045;-65
2023/07/29 10:38:35;;;;;;;5.15;4.72;;;;;;;25.89;100.00;93963.63;5013954;28;20018;-65
2023/07/29 10:41:00;;;;;;;6.28;4.70;;;;;;;25.93;100.00;93960.34;5014241;28;20057;-65
2023/07/29 10:43:34;;;;;;;5.43;4.93;;;;;;;26.18;100.00;93935.09;5013923;28;20084;-66
2023/07/29 10:46:19;;;;;;;8.85;5.07;;;;;;;26.58;100.00;93898.00;5028993;28;20033;-65
2023/07/29 10:48:50;;;;;;;5.47;4.97;;;;;;;26.80;100.00;93855.41;5006196;28;20112;-65
2023/07/29 10:51:29;;;;;;;5.82;4.78;;;;;;;27.05;100.00;93829.19;5018755;28;20030;-65
2023/07/29 10:54:11;;;;;;;4.88;4.47;;;;;;;27.87;100.00;93783.88;5025773;28;20022;-65
2023/07/29 10:56:42;;;;;;;5.13;4.65;;;;;;;28.36;100.00;93746.44;5013986;28;20032;-65
2023/07/29 10:59:17;;;;;;;7.90;4.78;;;;;;;28.26;100.00;93769.09;5013574;28;20409;-65
2023/07/29 11:01:50;;;;;;;4.65;4.32;;;;;;;28.54;100.00;93758.25;5013474;28;20037;-65
2023/07/29 11:04:24;;;;;;;6.85;4.53;;;;;;;28.64;100.00;93761.84;5013530;28;20112;-66
2023/07/29 11:07:12;;;;;;;4.03;3.72;;;;;;;28.29;100.00;93779.31;5013759;28;20034;-66
2023/07/29 11:10:00;;;;;;;4.43;3.97;;;;;;;28.03;100.00;93787.91;5001299;28;20030;-66
2023/07/29 11:12:47;;;;;;;4.10;3.80;;;;;;;27.92;100.00;93799.19;5004247;28;20049;-66
2023/07/29 11:15:15;;;;;;;4.60;4.20;;;;;;;28.11;100.00;93791.00;5013324;28;20033;-65
2023/07/29 11:17:59;;;;;;;4.80;3.78;;;;;;;27.95;100.00;93820.22;5012682;28;20034;-66
2023/07/29 11:20:33;;;;;;;4.78;3.88;;;;;;;27.57;100.00;93819.22;5010392;28;20399;-65
2023/07/29 11:23:03;;;;;;;4.50;4.13;;;;;;;27.40;100.00;93803.53;5000331;28;20026;-66